sensor_id;sensor_type;location;lat;lon;timestamp;P1;durP1;ratioP1;P2;durP2;ratioP2
553;SDS011;59;48.778;9.156;2022-11-27T00:02:03;18.83;;;13.23;;
553;SDS011;59;48.778;9.156;2022-11-27T00:04:29;19.60;;;13.87;;
553;SDS011;59;48.778;9.156;2022-11-27T00:06:55;16.10;;;12.67;;
553;SDS011;59;48.778;9.156;2022-11-27T00:09:20;17.63;;;12.90;;
553;SDS011;59;48.778;9.156;2022-11-27T00:11:46;17.87;;;12.40;;
553;SDS011;59;48.778;9.156;2022-11-27T00:14:12;17.00;;;12.70;;
553;SDS011;59;48.778;9.156;2022-11-27T00:16:39;17.67;;;12.80;;
553;SDS011;59;48.778;9.156;2022-11-27T00:19:05;14.53;;;10.93;;
553;SDS011;59;48.778;9.156;2022-11-27T00:21:32;17.67;;;13.33;;
553;SDS011;59;48.778;9.156;2022-11-27T00:23:59;14.90;;;11.57;;
553;SDS011;59;48.778;9.156;2022-11-27T00:26:27;17.87;;;12.20;;
553;SDS011;59;48.778;9.156;2022-11-27T00:28:54;15.00;;;11.40;;
553;SDS011;59;48.778;9.156;2022-11-27T00:31:21;14.23;;;10.60;;
553;SDS011;59;48.778;9.156;2022-11-27T00:33:56;17.70;;;11.00;;
553;SDS011;59;48.778;9.156;2022-11-27T00:36:27;15.73;;;10.57;;
553;SDS011;59;48.778;9.156;2022-11-27T00:38:54;12.93;;;9.90;;
553;SDS011;59;48.778;9.156;2022-11-27T00:41:21;14.37;;;9.83;;
553;SDS011;59;48.778;9.156;2022-11-27T00:43:48;13.90;;;10.80;;
553;SDS011;59;48.778;9.156;2022-11-27T00:46:15;15.27;;;10.50;;
553;SDS011;59;48.778;9.156;2022-11-27T00:48:43;13.70;;;9.73;;
553;SDS011;59;48.778;9.156;2022-11-27T00:51:10;13.80;;;10.10;;
553;SDS011;59;48.778;9.156;2022-11-27T00:53:37;15.20;;;10.93;;
553;SDS011;59;48.778;9.156;2022-11-27T00:56:03;14.10;;;9.80;;
553;SDS011;59;48.778;9.156;2022-11-27T00:58:29;14.30;;;10.20;;
553;SDS011;59;48.778;9.156;2022-11-27T01:01:02;15.27;;;11.00;;
553;SDS011;59;48.778;9.156;2022-11-27T01:03:29;14.03;;;10.37;;
553;SDS011;59;48.778;9.156;2022-11-27T01:05:56;18.30;;;11.70;;
553;SDS011;59;48.778;9.156;2022-11-27T01:08:25;13.27;;;10.43;;
553;SDS011;59;48.778;9.156;2022-11-27T01:10:52;13.97;;;9.77;;
553;SDS011;59;48.778;9.156;2022-11-27T01:13:20;14.93;;;10.87;;
553;SDS011;59;48.778;9.156;2022-11-27T01:15:56;15.80;;;10.93;;
553;SDS011;59;48.778;9.156;2022-11-27T01:18:29;15.80;;;11.13;;
553;SDS011;59;48.778;9.156;2022-11-27T01:20:55;14.40;;;10.23;;
553;SDS011;59;48.778;9.156;2022-11-27T01:23:21;15.43;;;10.70;;
553;SDS011;59;48.778;9.156;2022-11-27T01:25:48;12.80;;;10.20;;
553;SDS011;59;48.778;9.156;2022-11-27T01:28:14;15.70;;;11.33;;
553;SDS011;59;48.778;9.156;2022-11-27T01:30:40;15.40;;;10.97;;
553;SDS011;59;48.778;9.156;2022-11-27T01:33:07;13.70;;;10.33;;
553;SDS011;59;48.778;9.156;2022-11-27T01:35:33;15.83;;;11.30;;
553;SDS011;59;48.778;9.156;2022-11-27T01:37:58;16.80;;;11.60;;
553;SDS011;59;48.778;9.156;2022-11-27T01:40:24;15.90;;;10.60;;
553;SDS011;59;48.778;9.156;2022-11-27T01:42:50;14.50;;;11.10;;
553;SDS011;59;48.778;9.156;2022-11-27T01:45:17;15.20;;;11.03;;
553;SDS011;59;48.778;9.156;2022-11-27T01:47:49;14.60;;;10.63;;
553;SDS011;59;48.778;9.156;2022-11-27T01:50:21;17.57;;;10.50;;
553;SDS011;59;48.778;9.156;2022-11-27T01:52:51;15.90;;;10.70;;
553;SDS011;59;48.778;9.156;2022-11-27T01:55:30;14.90;;;10.60;;
553;SDS011;59;48.778;9.156;2022-11-27T01:57:59;15.40;;;11.17;;
553;SDS011;59;48.778;9.156;2022-11-27T02:00:28;16.13;;;11.50;;
553;SDS011;59;48.778;9.156;2022-11-27T02:02:54;17.10;;;12.10;;
553;SDS011;59;48.778;9.156;2022-11-27T02:05:21;17.90;;;11.37;;
553;SDS011;59;48.778;9.156;2022-11-27T02:07:49;16.77;;;11.37;;
553;SDS011;59;48.778;9.156;2022-11-27T02:10:15;15.73;;;10.90;;
553;SDS011;59;48.778;9.156;2022-11-27T02:15:31;16.40;;;11.60;;
553;SDS011;59;48.778;9.156;2022-11-27T02:18:27;17.07;;;11.93;;
553;SDS011;59;48.778;9.156;2022-11-27T02:21:10;15.67;;;10.67;;
553;SDS011;59;48.778;9.156;2022-11-27T02:26:48;17.87;;;11.60;;
553;SDS011;59;48.778;9.156;2022-11-27T02:29:32;15.13;;;10.80;;
553;SDS011;59;48.778;9.156;2022-11-27T02:34:50;16.70;;;11.07;;
553;SDS011;59;48.778;9.156;2022-11-27T02:37:35;13.83;;;10.10;;
553;SDS011;59;48.778;9.156;2022-11-27T02:45:17;16.37;;;11.07;;
553;SDS011;59;48.778;9.156;2022-11-27T02:47:47;13.60;;;10.53;;
553;SDS011;59;48.778;9.156;2022-11-27T02:50:15;14.07;;;9.90;;
553;SDS011;59;48.778;9.156;2022-11-27T02:52:44;15.50;;;10.80;;
553;SDS011;59;48.778;9.156;2022-11-27T02:55:12;17.67;;;10.20;;
553;SDS011;59;48.778;9.156;2022-11-27T02:57:41;19.43;;;11.20;;
553;SDS011;59;48.778;9.156;2022-11-27T03:00:08;12.43;;;10.07;;
553;SDS011;59;48.778;9.156;2022-11-27T03:02:38;14.40;;;10.67;;
553;SDS011;59;48.778;9.156;2022-11-27T03:05:07;17.73;;;10.47;;
553;SDS011;59;48.778;9.156;2022-11-27T03:07:56;12.93;;;10.20;;
553;SDS011;59;48.778;9.156;2022-11-27T03:10:27;12.10;;;9.90;;
553;SDS011;59;48.778;9.156;2022-11-27T03:12:56;13.57;;;9.60;;
553;SDS011;59;48.778;9.156;2022-11-27T03:15:22;14.03;;;9.47;;
553;SDS011;59;48.778;9.156;2022-11-27T03:20:20;12.27;;;9.70;;
553;SDS011;59;48.778;9.156;2022-11-27T03:22:54;12.80;;;9.80;;
553;SDS011;59;48.778;9.156;2022-11-27T03:25:20;10.53;;;8.70;;
553;SDS011;59;48.778;9.156;2022-11-27T03:28:00;14.60;;;10.03;;
553;SDS011;59;48.778;9.156;2022-11-27T03:30:28;14.47;;;9.93;;
553;SDS011;59;48.778;9.156;2022-11-27T03:32:54;13.80;;;9.30;;
553;SDS011;59;48.778;9.156;2022-11-27T03:35:21;14.20;;;9.10;;
553;SDS011;59;48.778;9.156;2022-11-27T03:37:48;13.00;;;8.97;;
553;SDS011;59;48.778;9.156;2022-11-27T03:40:14;13.33;;;9.17;;
553;SDS011;59;48.778;9.156;2022-11-27T03:42:50;11.70;;;8.93;;
553;SDS011;59;48.778;9.156;2022-11-27T03:48:23;13.70;;;9.17;;
553;SDS011;59;48.778;9.156;2022-11-27T03:56:35;13.33;;;9.10;;
553;SDS011;59;48.778;9.156;2022-11-27T03:59:13;13.10;;;9.90;;
553;SDS011;59;48.778;9.156;2022-11-27T04:01:50;13.73;;;9.53;;
553;SDS011;59;48.778;9.156;2022-11-27T04:04:16;12.63;;;9.10;;
553;SDS011;59;48.778;9.156;2022-11-27T04:06:42;13.20;;;9.27;;
553;SDS011;59;48.778;9.156;2022-11-27T04:09:07;14.27;;;8.43;;
553;SDS011;59;48.778;9.156;2022-11-27T04:11:33;12.30;;;8.53;;
553;SDS011;59;48.778;9.156;2022-11-27T04:13:58;12.67;;;9.63;;
553;SDS011;59;48.778;9.156;2022-11-27T04:16:24;15.50;;;11.23;;
553;SDS011;59;48.778;9.156;2022-11-27T04:18:50;14.97;;;10.77;;
553;SDS011;59;48.778;9.156;2022-11-27T04:21:16;15.57;;;10.83;;
553;SDS011;59;48.778;9.156;2022-11-27T04:23:42;17.27;;;10.90;;
553;SDS011;59;48.778;9.156;2022-11-27T04:26:08;15.60;;;10.83;;
553;SDS011;59;48.778;9.156;2022-11-27T04:28:34;12.83;;;10.57;;
553;SDS011;59;48.778;9.156;2022-11-27T04:30:59;13.70;;;10.03;;
553;SDS011;59;48.778;9.156;2022-11-27T04:33:25;15.30;;;9.57;;
553;SDS011;59;48.778;9.156;2022-11-27T04:35:51;14.43;;;10.40;;
553;SDS011;59;48.778;9.156;2022-11-27T04:38:17;17.93;;;11.60;;
553;SDS011;59;48.778;9.156;2022-11-27T04:40:43;16.63;;;11.10;;
553;SDS011;59;48.778;9.156;2022-11-27T04:43:09;16.53;;;11.83;;
553;SDS011;59;48.778;9.156;2022-11-27T04:45:35;16.20;;;11.90;;
553;SDS011;59;48.778;9.156;2022-11-27T04:48:01;15.50;;;11.37;;
553;SDS011;59;48.778;9.156;2022-11-27T04:50:27;16.30;;;12.20;;
553;SDS011;59;48.778;9.156;2022-11-27T04:52:53;18.23;;;12.53;;
553;SDS011;59;48.778;9.156;2022-11-27T04:55:19;15.80;;;11.27;;
553;SDS011;59;48.778;9.156;2022-11-27T04:57:44;17.60;;;12.03;;
553;SDS011;59;48.778;9.156;2022-11-27T05:00:10;15.47;;;11.70;;
553;SDS011;59;48.778;9.156;2022-11-27T05:02:36;15.50;;;11.90;;
553;SDS011;59;48.778;9.156;2022-11-27T05:05:02;16.43;;;12.17;;
553;SDS011;59;48.778;9.156;2022-11-27T05:07:28;15.83;;;11.70;;
553;SDS011;59;48.778;9.156;2022-11-27T05:09:54;14.60;;;10.87;;
553;SDS011;59;48.778;9.156;2022-11-27T05:12:19;16.90;;;12.00;;
553;SDS011;59;48.778;9.156;2022-11-27T05:14:45;16.73;;;12.40;;
553;SDS011;59;48.778;9.156;2022-11-27T05:17:11;16.60;;;12.53;;
553;SDS011;59;48.778;9.156;2022-11-27T05:19:36;15.40;;;12.13;;
553;SDS011;59;48.778;9.156;2022-11-27T05:22:02;14.77;;;12.20;;
553;SDS011;59;48.778;9.156;2022-11-27T05:24:28;17.70;;;12.70;;
553;SDS011;59;48.778;9.156;2022-11-27T05:26:55;20.30;;;13.53;;
553;SDS011;59;48.778;9.156;2022-11-27T05:29:21;17.10;;;12.90;;
553;SDS011;59;48.778;9.156;2022-11-27T05:31:47;16.70;;;12.50;;
553;SDS011;59;48.778;9.156;2022-11-27T05:34:14;17.20;;;12.60;;
553;SDS011;59;48.778;9.156;2022-11-27T05:36:40;19.70;;;13.00;;
553;SDS011;59;48.778;9.156;2022-11-27T05:39:06;17.80;;;13.70;;
553;SDS011;59;48.778;9.156;2022-11-27T05:41:33;17.93;;;12.40;;
553;SDS011;59;48.778;9.156;2022-11-27T05:43:59;20.20;;;13.17;;
553;SDS011;59;48.778;9.156;2022-11-27T05:46:25;18.27;;;13.60;;
553;SDS011;59;48.778;9.156;2022-11-27T05:48:50;17.37;;;12.37;;
553;SDS011;59;48.778;9.156;2022-11-27T05:51:16;16.43;;;12.67;;
553;SDS011;59;48.778;9.156;2022-11-27T05:53:43;15.80;;;12.47;;
553;SDS011;59;48.778;9.156;2022-11-27T05:56:10;18.13;;;13.40;;
553;SDS011;59;48.778;9.156;2022-11-27T05:58:39;16.30;;;12.77;;
553;SDS011;59;48.778;9.156;2022-11-27T06:01:06;19.70;;;12.30;;
553;SDS011;59;48.778;9.156;2022-11-27T06:03:32;14.63;;;11.20;;
553;SDS011;59;48.778;9.156;2022-11-27T06:05:58;17.90;;;12.37;;
553;SDS011;59;48.778;9.156;2022-11-27T06:08:30;18.20;;;12.63;;
553;SDS011;59;48.778;9.156;2022-11-27T06:10:55;18.00;;;12.87;;
553;SDS011;59;48.778;9.156;2022-11-27T06:13:21;16.00;;;12.37;;
553;SDS011;59;48.778;9.156;2022-11-27T06:15:47;17.10;;;12.33;;
553;SDS011;59;48.778;9.156;2022-11-27T06:18:12;19.63;;;12.13;;
553;SDS011;59;48.778;9.156;2022-11-27T06:20:38;15.93;;;12.30;;
553;SDS011;59;48.778;9.156;2022-11-27T06:23:20;17.47;;;12.50;;
553;SDS011;59;48.778;9.156;2022-11-27T06:25:46;15.80;;;12.27;;
553;SDS011;59;48.778;9.156;2022-11-27T06:28:12;15.20;;;11.67;;
553;SDS011;59;48.778;9.156;2022-11-27T06:30:37;16.90;;;12.53;;
553;SDS011;59;48.778;9.156;2022-11-27T06:33:03;15.23;;;11.53;;
553;SDS011;59;48.778;9.156;2022-11-27T06:35:29;19.17;;;12.23;;
553;SDS011;59;48.778;9.156;2022-11-27T06:37:54;15.47;;;12.70;;
553;SDS011;59;48.778;9.156;2022-11-27T06:40:20;15.80;;;12.30;;
553;SDS011;59;48.778;9.156;2022-11-27T06:42:46;17.13;;;12.43;;
553;SDS011;59;48.778;9.156;2022-11-27T06:45:11;15.23;;;12.23;;
553;SDS011;59;48.778;9.156;2022-11-27T06:47:38;17.60;;;12.40;;
553;SDS011;59;48.778;9.156;2022-11-27T06:50:04;19.17;;;11.50;;
553;SDS011;59;48.778;9.156;2022-11-27T06:52:30;15.00;;;11.77;;
553;SDS011;59;48.778;9.156;2022-11-27T06:54:56;16.10;;;11.97;;
553;SDS011;59;48.778;9.156;2022-11-27T06:57:22;15.87;;;11.60;;
553;SDS011;59;48.778;9.156;2022-11-27T06:59:47;17.00;;;11.67;;
553;SDS011;59;48.778;9.156;2022-11-27T07:02:13;15.50;;;10.90;;
553;SDS011;59;48.778;9.156;2022-11-27T07:04:39;15.30;;;11.47;;
553;SDS011;59;48.778;9.156;2022-11-27T07:07:05;14.70;;;11.43;;
553;SDS011;59;48.778;9.156;2022-11-27T07:09:31;19.37;;;11.70;;
553;SDS011;59;48.778;9.156;2022-11-27T07:11:56;14.87;;;11.23;;
553;SDS011;59;48.778;9.156;2022-11-27T07:14:22;21.60;;;12.53;;
553;SDS011;59;48.778;9.156;2022-11-27T08:02:22;13.67;;;10.47;;
553;SDS011;59;48.778;9.156;2022-11-27T08:04:48;15.73;;;10.43;;
553;SDS011;59;48.778;9.156;2022-11-27T08:07:14;13.07;;;9.70;;
553;SDS011;59;48.778;9.156;2022-11-27T08:09:39;14.63;;;10.07;;
553;SDS011;59;48.778;9.156;2022-11-27T08:12:05;14.00;;;10.97;;
553;SDS011;59;48.778;9.156;2022-11-27T08:14:31;15.50;;;10.90;;
553;SDS011;59;48.778;9.156;2022-11-27T08:16:57;14.90;;;10.50;;
553;SDS011;59;48.778;9.156;2022-11-27T08:19:22;13.50;;;10.50;;
553;SDS011;59;48.778;9.156;2022-11-27T08:21:48;14.20;;;10.60;;
553;SDS011;59;48.778;9.156;2022-11-27T08:24:14;15.70;;;10.13;;
553;SDS011;59;48.778;9.156;2022-11-27T08:26:40;15.73;;;10.53;;
553;SDS011;59;48.778;9.156;2022-11-27T08:29:06;13.13;;;9.93;;
553;SDS011;59;48.778;9.156;2022-11-27T08:31:32;13.30;;;9.70;;
553;SDS011;59;48.778;9.156;2022-11-27T08:33:58;12.70;;;8.30;;
553;SDS011;59;48.778;9.156;2022-11-27T08:36:24;31.90;;;18.80;;
553;SDS011;59;48.778;9.156;2022-11-27T08:38:50;13.20;;;9.47;;
553;SDS011;59;48.778;9.156;2022-11-27T08:41:16;15.77;;;9.53;;
553;SDS011;59;48.778;9.156;2022-11-27T08:43:42;13.97;;;8.90;;
553;SDS011;59;48.778;9.156;2022-11-27T08:46:09;13.43;;;8.80;;
553;SDS011;59;48.778;9.156;2022-11-27T08:48:35;10.43;;;8.47;;
553;SDS011;59;48.778;9.156;2022-11-27T08:51:08;13.63;;;9.10;;
553;SDS011;59;48.778;9.156;2022-11-27T08:53:38;11.80;;;8.37;;
553;SDS011;59;48.778;9.156;2022-11-27T08:56:07;15.97;;;9.20;;
553;SDS011;59;48.778;9.156;2022-11-27T09:01:13;13.77;;;9.00;;
553;SDS011;59;48.778;9.156;2022-11-27T09:03:40;11.13;;;7.57;;
553;SDS011;59;48.778;9.156;2022-11-27T09:06:07;13.20;;;8.93;;
553;SDS011;59;48.778;9.156;2022-11-27T09:08:38;10.93;;;7.93;;
553;SDS011;59;48.778;9.156;2022-11-27T09:11:05;10.67;;;8.13;;
553;SDS011;59;48.778;9.156;2022-11-27T09:13:33;10.57;;;7.70;;
553;SDS011;59;48.778;9.156;2022-11-27T09:16:04;13.27;;;8.30;;
553;SDS011;59;48.778;9.156;2022-11-27T09:18:30;10.23;;;7.93;;
553;SDS011;59;48.778;9.156;2022-11-27T09:20:57;12.53;;;8.63;;
553;SDS011;59;48.778;9.156;2022-11-27T09:23:24;7.90;;;6.30;;
553;SDS011;59;48.778;9.156;2022-11-27T09:25:50;12.80;;;8.17;;
553;SDS011;59;48.778;9.156;2022-11-27T09:28:15;11.20;;;8.07;;
553;SDS011;59;48.778;9.156;2022-11-27T09:30:41;10.07;;;7.90;;
553;SDS011;59;48.778;9.156;2022-11-27T09:33:07;9.07;;;7.83;;
553;SDS011;59;48.778;9.156;2022-11-27T09:35:32;10.20;;;7.80;;
553;SDS011;59;48.778;9.156;2022-11-27T09:38:00;11.63;;;7.17;;
553;SDS011;59;48.778;9.156;2022-11-27T09:40:26;11.83;;;7.90;;
553;SDS011;59;48.778;9.156;2022-11-27T09:42:52;9.50;;;7.27;;
553;SDS011;59;48.778;9.156;2022-11-27T09:45:21;11.73;;;9.50;;
553;SDS011;59;48.778;9.156;2022-11-27T09:50:23;13.80;;;11.63;;
553;SDS011;59;48.778;9.156;2022-11-27T09:52:52;14.60;;;12.13;;
553;SDS011;59;48.778;9.156;2022-11-27T09:55:25;13.63;;;10.47;;
553;SDS011;59;48.778;9.156;2022-11-27T10:00:34;11.10;;;10.20;;
553;SDS011;59;48.778;9.156;2022-11-27T10:03:00;12.93;;;10.40;;
553;SDS011;59;48.778;9.156;2022-11-27T10:05:28;13.87;;;10.83;;
553;SDS011;59;48.778;9.156;2022-11-27T10:08:23;12.57;;;10.70;;
553;SDS011;59;48.778;9.156;2022-11-27T10:11:18;12.20;;;9.93;;
553;SDS011;59;48.778;9.156;2022-11-27T10:22:01;11.33;;;9.47;;
553;SDS011;59;48.778;9.156;2022-11-27T10:30:25;10.60;;;8.40;;
553;SDS011;59;48.778;9.156;2022-11-27T10:32:53;10.50;;;8.67;;
553;SDS011;59;48.778;9.156;2022-11-27T10:35:21;9.20;;;7.40;;
553;SDS011;59;48.778;9.156;2022-11-27T10:37:59;11.97;;;8.87;;
553;SDS011;59;48.778;9.156;2022-11-27T10:40:41;11.57;;;9.00;;
553;SDS011;59;48.778;9.156;2022-11-27T10:43:14;11.50;;;7.83;;
553;SDS011;59;48.778;9.156;2022-11-27T10:46:02;10.37;;;8.37;;
553;SDS011;59;48.778;9.156;2022-11-27T10:48:33;10.20;;;8.40;;
553;SDS011;59;48.778;9.156;2022-11-27T10:50:59;10.30;;;8.23;;
553;SDS011;59;48.778;9.156;2022-11-27T10:53:26;10.60;;;8.87;;
553;SDS011;59;48.778;9.156;2022-11-27T10:56:02;10.60;;;7.83;;
553;SDS011;59;48.778;9.156;2022-11-27T10:58:59;11.90;;;7.47;;
553;SDS011;59;48.778;9.156;2022-11-27T11:01:46;8.07;;;6.93;;
553;SDS011;59;48.778;9.156;2022-11-27T11:04:14;8.03;;;7.10;;
553;SDS011;59;48.778;9.156;2022-11-27T11:06:45;8.60;;;6.70;;
553;SDS011;59;48.778;9.156;2022-11-27T11:11:45;8.70;;;6.20;;
553;SDS011;59;48.778;9.156;2022-11-27T11:16:48;6.63;;;5.20;;
553;SDS011;59;48.778;9.156;2022-11-27T11:19:24;12.03;;;9.53;;
553;SDS011;59;48.778;9.156;2022-11-27T11:21:53;9.60;;;7.57;;
553;SDS011;59;48.778;9.156;2022-11-27T11:24:28;8.57;;;6.60;;
553;SDS011;59;48.778;9.156;2022-11-27T11:26:56;6.07;;;5.40;;
553;SDS011;59;48.778;9.156;2022-11-27T11:32:02;5.80;;;5.00;;
553;SDS011;59;48.778;9.156;2022-11-27T11:34:33;6.90;;;5.87;;
553;SDS011;59;48.778;9.156;2022-11-27T11:39:36;7.00;;;6.00;;
553;SDS011;59;48.778;9.156;2022-11-27T11:42:09;6.30;;;5.40;;
553;SDS011;59;48.778;9.156;2022-11-27T11:44:39;8.60;;;6.33;;
553;SDS011;59;48.778;9.156;2022-11-27T11:47:05;8.67;;;7.00;;
553;SDS011;59;48.778;9.156;2022-11-27T11:49:38;8.93;;;6.47;;
553;SDS011;59;48.778;9.156;2022-11-27T12:00:40;8.53;;;6.57;;
553;SDS011;59;48.778;9.156;2022-11-27T12:05:45;8.90;;;7.07;;
553;SDS011;59;48.778;9.156;2022-11-27T12:13:47;9.77;;;7.00;;
553;SDS011;59;48.778;9.156;2022-11-27T12:16:31;7.97;;;6.30;;
553;SDS011;59;48.778;9.156;2022-11-27T12:21:50;8.80;;;6.77;;
553;SDS011;59;48.778;9.156;2022-11-27T12:25:02;8.10;;;6.27;;
553;SDS011;59;48.778;9.156;2022-11-27T12:30:13;8.73;;;6.13;;
553;SDS011;59;48.778;9.156;2022-11-27T12:43:50;26.60;;;15.40;;
553;SDS011;59;48.778;9.156;2022-11-27T12:46:24;19.40;;;12.70;;
553;SDS011;59;48.778;9.156;2022-11-27T12:49:09;12.17;;;7.50;;
553;SDS011;59;48.778;9.156;2022-11-27T12:52:06;5.40;;;4.73;;
553;SDS011;59;48.778;9.156;2022-11-27T12:54:41;6.83;;;5.10;;
553;SDS011;59;48.778;9.156;2022-11-27T13:00:12;5.40;;;4.13;;
553;SDS011;59;48.778;9.156;2022-11-27T13:06:13;5.27;;;4.23;;
553;SDS011;59;48.778;9.156;2022-11-27T13:11:38;6.20;;;4.93;;
553;SDS011;59;48.778;9.156;2022-11-27T13:14:13;6.43;;;5.10;;
553;SDS011;59;48.778;9.156;2022-11-27T13:16:51;7.47;;;5.17;;
553;SDS011;59;48.778;9.156;2022-11-27T13:21:52;6.40;;;4.30;;
553;SDS011;59;48.778;9.156;2022-11-27T13:24:18;6.90;;;4.60;;
553;SDS011;59;48.778;9.156;2022-11-27T13:26:55;5.33;;;4.30;;
553;SDS011;59;48.778;9.156;2022-11-27T13:29:29;5.80;;;5.00;;
553;SDS011;59;48.778;9.156;2022-11-27T13:31:58;4.93;;;4.00;;
553;SDS011;59;48.778;9.156;2022-11-27T13:34:26;5.20;;;3.87;;
553;SDS011;59;48.778;9.156;2022-11-27T13:36:54;5.97;;;4.07;;
553;SDS011;59;48.778;9.156;2022-11-27T13:39:23;8.70;;;4.80;;
553;SDS011;59;48.778;9.156;2022-11-27T13:42:25;5.90;;;4.20;;
553;SDS011;59;48.778;9.156;2022-11-27T13:44:56;4.13;;;3.60;;
553;SDS011;59;48.778;9.156;2022-11-27T13:47:24;6.10;;;3.93;;
553;SDS011;59;48.778;9.156;2022-11-27T13:50:02;5.37;;;3.77;;
553;SDS011;59;48.778;9.156;2022-11-27T13:55:28;5.07;;;3.57;;
553;SDS011;59;48.778;9.156;2022-11-27T13:57:54;4.40;;;3.37;;
553;SDS011;59;48.778;9.156;2022-11-27T14:00:35;10.00;;;6.70;;
553;SDS011;59;48.778;9.156;2022-11-27T14:03:03;46.00;;;28.77;;
553;SDS011;59;48.778;9.156;2022-11-27T14:06:00;20.87;;;13.67;;
553;SDS011;59;48.778;9.156;2022-11-27T14:08:30;7.63;;;5.90;;
553;SDS011;59;48.778;9.156;2022-11-27T14:11:01;7.70;;;5.73;;
553;SDS011;59;48.778;9.156;2022-11-27T14:16:01;7.77;;;5.03;;
553;SDS011;59;48.778;9.156;2022-11-27T14:18:28;8.53;;;5.73;;
553;SDS011;59;48.778;9.156;2022-11-27T14:23:29;9.30;;;6.73;;
553;SDS011;59;48.778;9.156;2022-11-27T14:26:04;9.47;;;6.70;;
553;SDS011;59;48.778;9.156;2022-11-27T14:28:51;9.57;;;7.13;;
553;SDS011;59;48.778;9.156;2022-11-27T14:33:54;8.00;;;6.17;;
553;SDS011;59;48.778;9.156;2022-11-27T14:36:21;7.97;;;5.63;;
553;SDS011;59;48.778;9.156;2022-11-27T14:38:49;7.50;;;5.70;;
553;SDS011;59;48.778;9.156;2022-11-27T14:41:16;7.77;;;5.63;;
553;SDS011;59;48.778;9.156;2022-11-27T14:43:43;9.63;;;6.80;;
553;SDS011;59;48.778;9.156;2022-11-27T14:46:13;10.00;;;6.73;;
553;SDS011;59;48.778;9.156;2022-11-27T14:48:44;7.57;;;6.07;;
553;SDS011;59;48.778;9.156;2022-11-27T14:51:13;8.37;;;6.30;;
553;SDS011;59;48.778;9.156;2022-11-27T14:53:41;8.77;;;6.40;;
553;SDS011;59;48.778;9.156;2022-11-27T14:56:07;7.73;;;5.83;;
553;SDS011;59;48.778;9.156;2022-11-27T14:58:33;8.77;;;6.27;;
553;SDS011;59;48.778;9.156;2022-11-27T15:01:01;8.03;;;5.90;;
553;SDS011;59;48.778;9.156;2022-11-27T15:03:28;8.37;;;6.40;;
553;SDS011;59;48.778;9.156;2022-11-27T15:05:58;33.23;;;20.93;;
553;SDS011;59;48.778;9.156;2022-11-27T15:08:25;35.80;;;23.27;;
553;SDS011;59;48.778;9.156;2022-11-27T15:10:52;54.83;;;37.17;;
553;SDS011;59;48.778;9.156;2022-11-27T15:13:23;47.30;;;31.70;;
553;SDS011;59;48.778;9.156;2022-11-27T15:18:23;18.30;;;12.60;;
553;SDS011;59;48.778;9.156;2022-11-27T15:20:49;13.47;;;9.33;;
553;SDS011;59;48.778;9.156;2022-11-27T15:23:25;11.17;;;8.40;;
553;SDS011;59;48.778;9.156;2022-11-27T15:28:25;9.40;;;7.23;;
553;SDS011;59;48.778;9.156;2022-11-27T15:30:58;8.83;;;6.30;;
553;SDS011;59;48.778;9.156;2022-11-27T15:35:51;8.70;;;6.23;;
553;SDS011;59;48.778;9.156;2022-11-27T15:38:18;11.17;;;7.03;;
553;SDS011;59;48.778;9.156;2022-11-27T15:40:44;9.87;;;6.60;;
553;SDS011;59;48.778;9.156;2022-11-27T15:43:21;9.50;;;6.47;;
553;SDS011;59;48.778;9.156;2022-11-27T15:45:46;8.77;;;6.03;;
553;SDS011;59;48.778;9.156;2022-11-27T15:48:12;7.83;;;6.10;;
553;SDS011;59;48.778;9.156;2022-11-27T15:50:40;9.80;;;6.47;;
553;SDS011;59;48.778;9.156;2022-11-27T15:53:05;7.60;;;5.87;;
553;SDS011;59;48.778;9.156;2022-11-27T15:55:31;8.20;;;6.50;;
553;SDS011;59;48.778;9.156;2022-11-27T15:57:57;6.30;;;5.73;;
553;SDS011;59;48.778;9.156;2022-11-27T16:00:23;9.63;;;6.93;;
553;SDS011;59;48.778;9.156;2022-11-27T16:02:50;8.30;;;6.50;;
553;SDS011;59;48.778;9.156;2022-11-27T16:05:16;12.03;;;7.40;;
553;SDS011;59;48.778;9.156;2022-11-27T16:07:42;13.33;;;8.30;;
553;SDS011;59;48.778;9.156;2022-11-27T16:10:08;9.80;;;7.47;;
553;SDS011;59;48.778;9.156;2022-11-27T16:12:34;11.90;;;8.13;;
553;SDS011;59;48.778;9.156;2022-11-27T16:15:00;11.27;;;7.77;;
553;SDS011;59;48.778;9.156;2022-11-27T16:17:26;11.07;;;7.43;;
553;SDS011;59;48.778;9.156;2022-11-27T16:19:51;9.20;;;7.30;;
553;SDS011;59;48.778;9.156;2022-11-27T16:22:17;13.03;;;7.80;;
553;SDS011;59;48.778;9.156;2022-11-27T16:24:43;10.97;;;7.97;;
553;SDS011;59;48.778;9.156;2022-11-27T16:27:08;12.50;;;8.23;;
553;SDS011;59;48.778;9.156;2022-11-27T16:29:34;10.10;;;7.77;;
553;SDS011;59;48.778;9.156;2022-11-27T16:32:00;12.40;;;9.33;;
553;SDS011;59;48.778;9.156;2022-11-27T16:34:26;43.30;;;28.53;;
553;SDS011;59;48.778;9.156;2022-11-27T16:36:52;102.23;;;59.27;;
553;SDS011;59;48.778;9.156;2022-11-27T16:39:17;50.67;;;30.37;;
553;SDS011;59;48.778;9.156;2022-11-27T16:41:43;34.77;;;21.30;;
553;SDS011;59;48.778;9.156;2022-11-27T16:44:10;22.70;;;14.87;;
553;SDS011;59;48.778;9.156;2022-11-27T16:46:37;14.17;;;9.70;;
553;SDS011;59;48.778;9.156;2022-11-27T16:49:03;15.83;;;9.13;;
553;SDS011;59;48.778;9.156;2022-11-27T16:51:30;10.47;;;7.33;;
553;SDS011;59;48.778;9.156;2022-11-27T16:53:58;9.90;;;7.40;;
553;SDS011;59;48.778;9.156;2022-11-27T16:56:28;10.20;;;7.80;;
553;SDS011;59;48.778;9.156;2022-11-27T16:58:55;10.13;;;6.70;;
553;SDS011;59;48.778;9.156;2022-11-27T17:01:23;10.27;;;7.20;;
553;SDS011;59;48.778;9.156;2022-11-27T17:03:54;8.57;;;6.27;;
553;SDS011;59;48.778;9.156;2022-11-27T17:06:24;8.80;;;6.63;;
553;SDS011;59;48.778;9.156;2022-11-27T17:08:54;9.70;;;6.97;;
553;SDS011;59;48.778;9.156;2022-11-27T17:11:22;8.77;;;5.53;;
553;SDS011;59;48.778;9.156;2022-11-27T17:13:49;9.00;;;6.30;;
553;SDS011;59;48.778;9.156;2022-11-27T17:16:16;14.13;;;7.23;;
553;SDS011;59;48.778;9.156;2022-11-27T17:18:42;9.10;;;7.07;;
553;SDS011;59;48.778;9.156;2022-11-27T17:21:18;9.90;;;7.43;;
553;SDS011;59;48.778;9.156;2022-11-27T17:23:48;8.90;;;6.90;;
553;SDS011;59;48.778;9.156;2022-11-27T17:26:16;10.07;;;8.03;;
553;SDS011;59;48.778;9.156;2022-11-27T17:28:44;9.73;;;7.80;;
553;SDS011;59;48.778;9.156;2022-11-27T17:31:10;11.03;;;8.00;;
553;SDS011;59;48.778;9.156;2022-11-27T17:33:37;9.63;;;7.90;;
553;SDS011;59;48.778;9.156;2022-11-27T17:36:03;9.53;;;7.93;;
553;SDS011;59;48.778;9.156;2022-11-27T17:38:29;9.80;;;6.43;;
553;SDS011;59;48.778;9.156;2022-11-27T17:41:01;12.97;;;8.67;;
553;SDS011;59;48.778;9.156;2022-11-27T17:43:27;11.10;;;7.70;;
553;SDS011;59;48.778;9.156;2022-11-27T17:45:54;13.03;;;8.70;;
553;SDS011;59;48.778;9.156;2022-11-27T17:48:21;11.20;;;8.90;;
553;SDS011;59;48.778;9.156;2022-11-27T17:50:47;26.70;;;18.40;;
553;SDS011;59;48.778;9.156;2022-11-27T17:53:13;27.70;;;19.70;;
553;SDS011;59;48.778;9.156;2022-11-27T17:55:39;18.33;;;13.17;;
553;SDS011;59;48.778;9.156;2022-11-27T17:58:05;12.83;;;9.33;;
553;SDS011;59;48.778;9.156;2022-11-27T18:00:34;14.00;;;9.40;;
553;SDS011;59;48.778;9.156;2022-11-27T18:03:01;10.20;;;8.13;;
553;SDS011;59;48.778;9.156;2022-11-27T18:05:28;13.87;;;9.03;;
553;SDS011;59;48.778;9.156;2022-11-27T18:07:54;10.80;;;8.43;;
553;SDS011;59;48.778;9.156;2022-11-27T18:10:21;9.20;;;7.50;;
553;SDS011;59;48.778;9.156;2022-11-27T18:12:46;11.70;;;8.23;;
553;SDS011;59;48.778;9.156;2022-11-27T18:15:12;9.23;;;7.70;;
553;SDS011;59;48.778;9.156;2022-11-27T18:17:38;10.60;;;8.00;;
553;SDS011;59;48.778;9.156;2022-11-27T18:20:05;11.63;;;7.67;;
553;SDS011;59;48.778;9.156;2022-11-27T18:22:31;12.73;;;7.53;;
553;SDS011;59;48.778;9.156;2022-11-27T18:24:57;8.60;;;7.30;;
553;SDS011;59;48.778;9.156;2022-11-27T18:27:23;9.37;;;8.03;;
553;SDS011;59;48.778;9.156;2022-11-27T18:29:48;11.33;;;7.90;;
553;SDS011;59;48.778;9.156;2022-11-27T18:32:15;10.30;;;7.53;;
553;SDS011;59;48.778;9.156;2022-11-27T18:34:42;11.83;;;8.80;;
553;SDS011;59;48.778;9.156;2022-11-27T18:37:08;12.30;;;8.40;;
553;SDS011;59;48.778;9.156;2022-11-27T18:39:35;10.77;;;7.90;;